Time;durP1;ratioP1;P1;durP2;ratioP2;P2;SDS_P1;SDS_P2;PMS_P1;PMS_P2;Temp;Humidity;BMP_temperature;BMP_pressure;BME280_temperature;BME280_humidity;BME280_pressure;Samples;Min_cycle;Max_cycle;Signal;HPM_P1;HPM_P2
2023/01/17 00:01:59;;;;;;;1.23;0.38;;;3.40;99.90;;;;;;5034536;28;20037;-80
2023/01/17 00:09:58;;;;;;;3.80;0.30;;;3.40;99.90;;;;;;5038015;28;20032;-80
2023/01/17 00:12:30;;;;;;;1.05;0.20;;;3.40;99.90;;;;;;5045712;28;20025;-80
2023/01/17 00:14:57;;;;;;;1.05;0.17;;;3.50;99.90;;;;;;5040800;28;20040;-80
2023/01/17 00:17:24;;;;;;;2.67;0.20;;;3.50;99.90;;;;;;5034650;28;20061;-80
2023/01/17 01:35:22;;;;;;;4.20;0.30;;;3.00;99.90;;;;;;5040225;28;20033;-79
2023/01/17 01:37:48;;;;;;;2.15;0.20;;;3.00;99.90;;;;;;5026925;28;20035;-78
2023/01/17 01:40:15;;;;;;;1.80;0.10;;;2.90;99.90;;;;;;5048185;28;20055;-79
2023/01/17 01:42:58;;;;;;;4.05;0.10;;;2.90;99.90;;;;;;5039809;28;20034;-78
2023/01/17 01:45:30;;;;;;;2.92;0.10;;;2.80;99.90;;;;;;5025596;28;20116;-78
2023/01/17 01:48:05;;;;;;;1.42;0.10;;;2.70;99.90;;;;;;5045073;28;20023;-79
2023/01/17 01:50:33;;;;;;;1.85;0.10;;;2.70;99.90;;;;;;5038657;28;20051;-80
2023/01/17 01:53:02;;;;;;;0.38;0.00;;;2.60;99.90;;;;;;5045325;28;20033;-79
2023/01/17 01:55:32;;;;;;;4.55;0.08;;;2.40;99.90;;;;;;5038964;28;20025;-79
2023/01/17 01:58:06;;;;;;;0.57;0.00;;;2.30;99.90;;;;;;5038826;28;20021;-79
2023/01/17 02:00:37;;;;;;;0.50;0.00;;;2.20;99.90;;;;;;5044882;28;20037;-79
2023/01/17 02:03:13;;;;;;;0.45;0.00;;;2.20;99.90;;;;;;5043200;28;20021;-79
2023/01/17 02:05:42;;;;;;;0.20;0.00;;;2.00;99.90;;;;;;5044152;28;20021;-79
2023/01/17 02:08:13;;;;;;;0.43;0.00;;;1.90;99.90;;;;;;5025074;28;20040;-79
2023/01/17 02:10:40;;;;;;;0.20;0.00;;;1.80;99.90;;;;;;5037021;28;20495;-80
2023/01/17 02:13:08;;;;;;;0.55;0.00;;;1.70;99.90;;;;;;5023641;28;20025;-79
2023/01/17 02:16:01;;;;;;;0.73;0.00;;;1.70;99.90;;;;;;5052785;28;20022;-79
2023/01/17 02:18:48;;;;;;;1.08;0.00;;;1.80;99.90;;;;;;5023610;28;20033;-79
2023/01/17 02:21:21;;;;;;;0.22;0.00;;;1.90;99.90;;;;;;5034662;28;20041;-79
2023/01/17 02:24:19;;;;;;;0.25;0.00;;;1.80;99.90;;;;;;5027549;28;20032;-79
2023/01/17 02:27:09;;;;;;;0.10;0.00;;;1.90;99.90;;;;;;5043569;28;20030;-79
2023/01/17 02:29:48;;;;;;;;;;;1.90;99.90;;;;;;5029811;28;20025;-79
2023/01/17 02:32:38;;;;;;;0.32;0.00;;;1.90;99.90;;;;;;5038507;28;19916;-79
2023/01/17 02:35:12;;;;;;;0.43;0.00;;;2.00;99.90;;;;;;5037840;28;20374;-78
2023/01/17 02:37:57;;;;;;;0.47;0.00;;;1.90;99.90;;;;;;5040399;28;20031;-78
2023/01/17 02:40:27;;;;;;;0.15;0.00;;;1.90;99.90;;;;;;5037955;28;20454;-78
2023/01/17 02:43:01;;;;;;;0.47;0.10;;;1.90;99.90;;;;;;5024269;28;20029;-78
2023/01/17 02:45:28;;;;;;;0.30;0.10;;;1.90;99.90;;;;;;5039891;28;20096;-78
2023/01/17 02:47:53;;;;;;;0.63;0.10;;;1.80;99.90;;;;;;5043073;28;20040;-78
2023/01/17 02:50:29;;;;;;;2.67;0.10;;;1.80;99.90;;;;;;5043483;28;20048;-79
2023/01/17 02:53:22;;;;;;;1.92;0.20;;;1.70;99.90;;;;;;5037981;28;20070;-78
2023/01/17 02:56:13;;;;;;;1.67;0.10;;;1.70;99.90;;;;;;5044018;28;20174;-78
2023/01/17 02:59:07;;;;;;;0.70;0.20;;;1.70;99.90;;;;;;5042246;28;20057;-78
2023/01/17 03:01:59;;;;;;;1.27;0.13;;;1.70;99.90;;;;;;5025382;28;20144;-78
2023/01/17 03:04:33;;;;;;;1.20;0.10;;;1.70;99.90;;;;;;5010586;28;20025;-78
2023/01/17 03:07:05;;;;;;;1.25;0.10;;;1.70;99.90;;;;;;5000059;28;20025;-78
2023/01/17 03:09:32;;;;;;;0.30;0.10;;;1.80;99.90;;;;;;4992938;28;20645;-78
2023/01/17 03:11:58;;;;;;;1.33;0.10;;;1.90;99.90;;;;;;5023674;28;20075;-79
2023/01/17 03:14:24;;;;;;;1.45;0.20;;;1.90;99.90;;;;;;5005674;28;20104;-78
2023/01/17 03:16:50;;;;;;;2.38;0.60;;;1.90;99.90;;;;;;5021211;28;20033;-78
2023/01/17 03:19:15;;;;;;;1.75;0.50;;;1.90;99.90;;;;;;5004280;28;20494;-78
2023/01/17 03:21:41;;;;;;;2.38;0.45;;;1.90;99.90;;;;;;5009801;28;20136;-79
2023/01/17 03:24:07;;;;;;;1.77;0.68;;;1.90;99.90;;;;;;5017504;28;20498;-78
2023/01/17 03:26:33;;;;;;;2.30;0.50;;;1.80;99.90;;;;;;5021801;28;20569;-78
2023/01/17 03:28:58;;;;;;;2.58;0.40;;;1.80;99.90;;;;;;5009445;28;20037;-78
2023/01/17 03:31:24;;;;;;;3.38;0.30;;;1.80;99.90;;;;;;5022098;28;20044;-78
2023/01/17 03:33:50;;;;;;;1.80;0.30;;;1.60;99.90;;;;;;5008690;28;20065;-79
2023/01/17 03:36:15;;;;;;;1.83;0.20;;;1.60;99.90;;;;;;4993406;28;20560;-79
2023/01/17 03:38:41;;;;;;;1.83;0.20;;;1.50;99.90;;;;;;5018437;28;20048;-79
2023/01/17 03:41:07;;;;;;;0.95;0.30;;;1.50;99.90;;;;;;5039028;28;20069;-79
2023/01/17 03:43:32;;;;;;;1.10;0.20;;;1.30;99.90;;;;;;5021149;28;20041;-79
2023/01/17 03:46:06;;;;;;;2.33;0.25;;;1.30;99.90;;;;;;5021424;28;20049;-79
2023/01/17 03:48:32;;;;;;;1.20;0.30;;;1.30;99.90;;;;;;5040286;28;20051;-79
2023/01/17 03:50:58;;;;;;;2.05;0.20;;;1.30;99.90;;;;;;5041216;28;20025;-78
2023/01/17 03:53:24;;;;;;;0.52;0.20;;;1.30;99.90;;;;;;5036692;28;20036;-80
2023/01/17 03:55:49;;;;;;;1.38;0.20;;;1.30;99.90;;;;;;5044896;28;20492;-78
2023/01/17 03:58:15;;;;;;;0.60;0.20;;;1.30;99.90;;;;;;5029964;28;20033;-80
2023/01/17 04:00:41;;;;;;;1.70;0.20;;;1.30;99.90;;;;;;5019927;28;20095;-78
2023/01/17 04:03:07;;;;;;;2.92;0.28;;;1.40;99.90;;;;;;5037505;28;20078;-79
2023/01/17 04:05:33;;;;;;;2.38;0.20;;;1.50;99.90;;;;;;5029545;28;20123;-79
2023/01/17 04:07:59;;;;;;;1.15;0.10;;;1.50;99.90;;;;;;5024165;28;20048;-79
2023/01/17 04:10:25;;;;;;;0.88;0.20;;;1.50;99.90;;;;;;5036959;28;20514;-80
2023/01/17 04:12:50;;;;;;;2.05;0.20;;;1.50;99.90;;;;;;5038020;28;20091;-79
2023/01/17 04:15:16;;;;;;;0.95;0.10;;;1.50;99.90;;;;;;5029097;28;20116;-79
2023/01/17 04:17:42;;;;;;;1.10;0.10;;;1.50;99.90;;;;;;5028675;28;20099;-80
2023/01/17 04:20:25;;;;;;;1.42;0.10;;;1.50;99.90;;;;;;5044308;28;20033;-79
2023/01/17 04:22:50;;;;;;;4.90;0.10;;;1.40;99.90;;;;;;5033451;28;20476;-79
2023/01/17 04:25:16;;;;;;;1.42;0.10;;;1.40;99.90;;;;;;5045534;28;20021;-79
2023/01/17 04:27:42;;;;;;;2.67;0.30;;;1.30;99.90;;;;;;5044795;28;20029;-79
2023/01/17 04:30:08;;;;;;;4.38;0.10;;;1.30;99.90;;;;;;5023164;28;20026;-80
2023/01/17 04:32:34;;;;;;;0.30;0.10;;;1.20;99.90;;;;;;5025403;28;20035;-79
2023/01/17 04:34:59;;;;;;;1.85;0.10;;;1.10;99.90;;;;;;5022766;28;20139;-79
2023/01/17 04:37:27;;;;;;;0.22;0.00;;;1.10;99.90;;;;;;5039384;28;20026;-79
2023/01/17 04:39:53;;;;;;;0.10;0.00;;;1.10;99.90;;;;;;5044955;28;20029;-79
2023/01/17 04:42:18;;;;;;;0.40;0.00;;;1.10;99.90;;;;;;5036464;28;20048;-79
2023/01/17 04:44:44;;;;;;;1.38;0.10;;;1.10;99.90;;;;;;5021361;28;20029;-80
2023/01/17 04:47:09;;;;;;;0.50;0.10;;;1.00;99.90;;;;;;5041090;28;20469;-79
2023/01/17 04:49:35;;;;;;;0.38;0.10;;;1.00;99.90;;;;;;5035761;28;20431;-79
2023/01/17 04:52:01;;;;;;;0.47;0.10;;;1.00;99.90;;;;;;5040824;28;20127;-80
2023/01/17 04:54:26;;;;;;;0.40;0.13;;;0.90;99.90;;;;;;5025147;28;20227;-79
2023/01/17 04:56:52;;;;;;;1.20;0.20;;;0.90;99.90;;;;;;5035045;28;20029;-80
2023/01/17 04:59:18;;;;;;;1.58;0.20;;;1.00;99.90;;;;;;5028748;28;20030;-80
2023/01/17 05:01:43;;;;;;;0.65;0.17;;;1.00;99.90;;;;;;5037512;28;20481;-80
2023/01/17 05:04:09;;;;;;;1.85;0.20;;;1.00;99.90;;;;;;5025203;28;20021;-80
2023/01/17 05:06:35;;;;;;;2.35;0.20;;;0.90;99.90;;;;;;5038884;28;20488;-80
2023/01/17 05:09:01;;;;;;;0.98;0.30;;;1.00;99.90;;;;;;5042149;28;20112;-80
2023/01/17 05:11:27;;;;;;;1.25;0.22;;;1.00;99.90;;;;;;5039309;28;20025;-80
2023/01/17 05:13:53;;;;;;;1.00;0.20;;;0.90;99.90;;;;;;5039192;28;20067;-80
2023/01/17 05:16:18;;;;;;;1.05;0.20;;;1.00;99.90;;;;;;5035645;28;20034;-80
2023/01/17 05:18:44;;;;;;;1.83;0.43;;;0.90;99.90;;;;;;5039781;28;20029;-80
2023/01/17 05:21:09;;;;;;;1.98;0.20;;;1.00;99.90;;;;;;5040491;28;20140;-80
2023/01/17 05:23:35;;;;;;;3.08;0.30;;;1.00;99.90;;;;;;5037649;28;20021;-79
2023/01/17 05:26:01;;;;;;;2.25;0.30;;;1.00;99.90;;;;;;5035422;28;20033;-80
2023/01/17 05:28:26;;;;;;;4.38;0.32;;;1.00;99.90;;;;;;5045420;28;20017;-79
2023/01/17 05:30:52;;;;;;;1.83;0.40;;;1.00;99.90;;;;;;5044651;28;20383;-79
2023/01/17 05:33:18;;;;;;;1.73;0.40;;;1.10;99.90;;;;;;5028267;28;20025;-79
2023/01/17 05:35:43;;;;;;;3.00;0.40;;;1.10;99.90;;;;;;5028900;28;20179;-78
2023/01/17 05:38:09;;;;;;;3.45;0.30;;;1.00;99.90;;;;;;5028046;28;20431;-80
2023/01/17 05:40:35;;;;;;;2.40;0.30;;;1.00;99.90;;;;;;5041368;28;20037;-80
2023/01/17 05:43:04;;;;;;;3.03;0.20;;;0.90;99.90;;;;;;5028720;28;20036;-80
2023/01/17 05:45:32;;;;;;;0.63;0.20;;;0.80;99.90;;;;;;5033358;28;20048;-80
2023/01/17 05:47:58;;;;;;;1.40;0.20;;;0.80;99.90;;;;;;5022034;28;20029;-80
2023/01/17 05:50:26;;;;;;;1.23;0.20;;;0.80;99.90;;;;;;5036540;28;20048;-79
2023/01/17 05:52:58;;;;;;;2.20;0.20;;;0.80;99.90;;;;;;5034830;28;20030;-79
2023/01/17 05:55:24;;;;;;;1.73;0.20;;;0.70;99.90;;;;;;5039396;28;20458;-80
2023/01/17 05:57:50;;;;;;;0.95;0.20;;;0.80;99.90;;;;;;5038498;28;20029;-79
2023/01/17 06:00:17;;;;;;;0.70;0.20;;;0.70;99.90;;;;;;5023201;28;20040;-80
2023/01/17 06:02:43;;;;;;;1.33;0.20;;;0.70;99.90;;;;;;5039883;28;20384;-80
2023/01/17 06:05:09;;;;;;;1.65;0.20;;;0.70;99.90;;;;;;5030622;28;20040;-80
2023/01/17 06:07:35;;;;;;;2.03;0.13;;;0.70;99.90;;;;;;5026428;28;20063;-80
2023/01/17 06:10:01;;;;;;;0.80;0.20;;;0.60;99.90;;;;;;5028203;28;20052;-79
2023/01/17 06:12:27;;;;;;;0.90;0.13;;;0.60;99.90;;;;;;5028237;28;20028;-80
2023/01/17 06:14:52;;;;;;;1.75;0.20;;;0.60;99.90;;;;;;5038502;28;20494;-79
2023/01/17 06:17:18;;;;;;;1.98;0.20;;;0.60;99.90;;;;;;5040769;28;20444;-80
2023/01/17 06:19:44;;;;;;;1.20;0.13;;;0.60;99.90;;;;;;5030192;28;20040;-80
2023/01/17 06:22:10;;;;;;;0.90;0.10;;;0.80;99.90;;;;;;5039569;28;20069;-80
2023/01/17 06:24:36;;;;;;;1.70;0.10;;;0.70;99.90;;;;;;5043021;28;20029;-80
2023/01/17 06:27:01;;;;;;;1.40;0.10;;;0.70;99.90;;;;;;5022204;28;20393;-80
2023/01/17 06:29:27;;;;;;;1.30;0.10;;;0.70;99.90;;;;;;5037809;28;20029;-80
2023/01/17 06:31:53;;;;;;;2.17;0.20;;;0.70;99.90;;;;;;5037842;28;20358;-79
2023/01/17 06:34:18;;;;;;;1.33;0.10;;;0.70;99.90;;;;;;5031093;28;20025;-77
2023/01/17 06:36:44;;;;;;;2.42;0.30;;;0.70;99.90;;;;;;5037060;28;20033;-76
2023/01/17 06:39:10;;;;;;;2.47;0.28;;;0.70;99.90;;;;;;5014400;28;20045;-75
2023/01/17 06:41:35;;;;;;;0.73;0.20;;;0.70;99.90;;;;;;5032105;28;20041;-80
2023/01/17 06:44:01;;;;;;;0.50;0.20;;;0.70;99.90;;;;;;5013875;28;20468;-80
2023/01/17 06:46:27;;;;;;;0.85;0.20;;;0.60;99.90;;;;;;5028823;28;20037;-80
2023/01/17 06:48:53;;;;;;;0.90;0.20;;;0.50;99.90;;;;;;5031490;28;20065;-81
2023/01/17 06:51:19;;;;;;;2.17;0.20;;;0.50;99.90;;;;;;5000264;28;20557;-80
2023/01/17 06:53:46;;;;;;;0.80;0.20;;;0.50;99.90;;;;;;5016761;28;20033;-80
2023/01/17 06:56:14;;;;;;;0.50;0.10;;;0.50;99.90;;;;;;5017164;28;20029;-80
2023/01/17 06:58:40;;;;;;;1.52;0.20;;;0.50;99.90;;;;;;5017183;28;20131;-80
2023/01/17 07:01:10;;;;;;;1.25;0.30;;;0.50;99.90;;;;;;5002991;28;20366;-80
2023/01/17 07:03:37;;;;;;;2.85;0.40;;;0.50;99.90;;;;;;4991455;28;20552;-80
2023/01/17 07:06:04;;;;;;;0.98;0.30;;;0.40;99.90;;;;;;5032636;28;20033;-80
2023/01/17 07:08:31;;;;;;;2.78;0.50;;;0.40;99.90;;;;;;5033073;28;20030;-81
2023/01/17 07:11:01;;;;;;;1.98;0.50;;;0.40;99.90;;;;;;5033942;28;20036;-80
2023/01/17 07:13:27;;;;;;;3.05;0.40;;;0.40;99.90;;;;;;5044515;28;20094;-81
2023/01/17 07:15:53;;;;;;;3.78;0.65;;;0.40;99.90;;;;;;5014729;28;20033;-80
2023/01/17 07:18:22;;;;;;;3.65;0.90;;;0.40;99.90;;;;;;5029099;28;20358;-81
2023/01/17 07:20:52;;;;;;;5.18;0.88;;;0.50;99.90;;;;;;5013192;28;20041;-80
2023/01/17 07:23:22;;;;;;;2.80;0.85;;;0.40;99.90;;;;;;5016754;28;20021;-81
2023/01/17 07:25:51;;;;;;;;;;;0.40;99.90;;;;;;5019122;28;20033;-81
2023/01/17 07:28:17;;;;;;;4.55;0.43;;;0.40;99.90;;;;;;5027598;28;19909;-80
2023/01/17 07:30:43;;;;;;;4.13;0.50;;;0.30;99.90;;;;;;5011811;28;21834;-80
2023/01/17 07:33:08;;;;;;;6.18;0.70;;;0.40;99.90;;;;;;4964400;28;20045;-80
2023/01/17 07:35:35;;;;;;;3.47;0.70;;;0.40;99.90;;;;;;5033931;28;20393;-79
2023/01/17 07:38:01;;;;;;;4.18;0.50;;;0.40;99.90;;;;;;5020758;28;20033;-81
2023/01/17 07:40:27;;;;;;;2.35;0.60;;;0.30;99.90;;;;;;5031849;28;20037;-80
2023/01/17 07:43:02;;;;;;;1.73;0.52;;;0.40;99.90;;;;;;5004948;28;20041;-80
2023/01/17 07:45:27;;;;;;;1.90;0.45;;;0.50;99.90;;;;;;5006309;28;20121;-80
2023/01/17 07:47:56;;;;;;;1.73;0.50;;;0.50;99.90;;;;;;5025577;28;20100;-79
2023/01/17 07:50:27;;;;;;;2.53;0.40;;;0.50;99.90;;;;;;5022985;28;20071;-80
2023/01/17 07:52:53;;;;;;;6.38;0.60;;;0.50;99.90;;;;;;5024417;28;20157;-79
2023/01/17 07:55:22;;;;;;;3.08;0.50;;;0.40;99.90;;;;;;5023457;28;20031;-79
2023/01/17 07:57:50;;;;;;;2.22;0.57;;;0.40;99.90;;;;;;5006460;28;20038;-79
2023/01/17 08:00:17;;;;;;;1.45;0.40;;;0.50;99.90;;;;;;5006803;28;20694;-80
2023/01/17 08:02:45;;;;;;;1.77;0.40;;;0.40;99.90;;;;;;5003387;28;20919;-80
2023/01/17 08:05:11;;;;;;;2.30;0.50;;;0.40;99.90;;;;;;4996696;28;20041;-79
2023/01/17 08:07:36;;;;;;;1.55;0.45;;;0.40;99.90;;;;;;5024943;28;20036;-81
2023/01/17 08:10:11;;;;;;;2.08;0.82;;;0.40;99.90;;;;;;5025239;28;20044;-79
2023/01/17 08:12:37;;;;;;;2.85;0.80;;;0.50;99.90;;;;;;5007371;28;20029;-79
2023/01/17 08:15:04;;;;;;;9.35;2.28;;;0.60;99.90;;;;;;5006889;28;20035;-79
2023/01/17 08:17:32;;;;;;;4.10;1.80;;;0.70;99.90;;;;;;5018207;28;20055;-79
2023/01/17 08:19:58;;;;;;;6.28;1.83;;;0.80;99.90;;;;;;5008461;28;20927;-79
2023/01/17 08:22:24;;;;;;;4.50;1.00;;;0.80;99.90;;;;;;5017828;28;20107;-79
2023/01/17 08:24:49;;;;;;;3.22;0.80;;;0.70;99.90;;;;;;4999948;28;20029;-80
2023/01/17 08:27:15;;;;;;;3.00;0.95;;;0.70;99.90;;;;;;5017436;28;20095;-80
2023/01/17 08:29:45;;;;;;;2.50;0.70;;;0.80;99.90;;;;;;5019575;28;20509;-80
2023/01/17 08:32:11;;;;;;;3.90;1.27;;;0.80;99.90;;;;;;5001245;28;20047;-80
2023/01/17 08:34:38;;;;;;;7.88;2.00;;;0.70;99.90;;;;;;4999809;28;20037;-79
2023/01/17 08:37:03;;;;;;;4.00;0.93;;;0.70;99.90;;;;;;5002412;28;20486;-80
2023/01/17 08:39:29;;;;;;;4.95;1.30;;;0.70;99.90;;;;;;5017788;28;20116;-81
2023/01/17 08:41:56;;;;;;;3.58;1.40;;;0.70;99.90;;;;;;5016932;28;20044;-80
2023/01/17 08:44:22;;;;;;;2.88;1.00;;;0.70;99.90;;;;;;5007542;28;20025;-81
2023/01/17 08:46:48;;;;;;;4.03;1.20;;;0.80;99.90;;;;;;5018288;28;20426;-81
2023/01/17 08:49:13;;;;;;;4.88;1.73;;;0.80;99.90;;;;;;4966220;28;21304;-80
2023/01/17 08:51:39;;;;;;;5.80;2.40;;;0.80;99.90;;;;;;5010012;28;20037;-89
2023/01/17 08:54:05;;;;;;;3.75;1.65;;;0.80;99.90;;;;;;5017277;28;20029;-85
2023/01/17 08:56:31;;;;;;;8.13;2.65;;;0.80;99.90;;;;;;4996853;28;20064;-85
2023/01/17 08:58:56;;;;;;;8.05;2.88;;;0.90;99.90;;;;;;5008463;28;20103;-86
2023/01/17 09:01:22;;;;;;;6.18;2.42;;;0.90;99.90;;;;;;5018884;28;20461;-82
2023/01/17 09:03:50;;;;;;;6.78;2.90;;;0.90;99.90;;;;;;5009235;28;20568;-88
2023/01/17 09:06:16;;;;;;;7.45;2.67;;;0.90;99.90;;;;;;5003668;28;20075;-85
2023/01/17 09:08:45;;;;;;;6.25;3.20;;;0.90;99.90;;;;;;5003316;28;20127;-83
2023/01/17 09:11:14;;;;;;;5.20;2.50;;;1.00;99.90;;;;;;5013176;28;20033;-90
2023/01/17 09:13:40;;;;;;;6.93;3.25;;;1.10;99.90;;;;;;5017141;28;20033;-88
2023/01/17 09:16:07;;;;;;;7.85;3.42;;;1.20;99.90;;;;;;4993684;28;21217;-91
2023/01/17 09:18:34;;;;;;;7.63;3.75;;;1.20;99.90;;;;;;5010826;28;20029;-83
2023/01/17 09:21:11;;;;;;;9.38;4.57;;;1.20;99.90;;;;;;5001901;28;20049;-90
2023/01/17 09:23:37;;;;;;;9.10;4.28;;;1.30;99.90;;;;;;5008715;28;20064;-88
2023/01/17 09:26:06;;;;;;;8.00;4.55;;;1.30;99.90;;;;;;5020539;28;20482;-88
2023/01/17 09:28:39;;;;;;;9.68;5.22;;;1.40;99.90;;;;;;5018559;28;20036;-83
2023/01/17 09:31:08;;;;;;;8.07;4.40;;;1.40;99.90;;;;;;5013815;28;20033;-83
2023/01/17 09:33:34;;;;;;;14.55;5.22;;;1.50;99.90;;;;;;5021326;28;20637;-83
2023/01/17 09:36:03;;;;;;;8.48;4.63;;;1.50;99.90;;;;;;5015612;28;20404;-83
2023/01/17 09:38:29;;;;;;;11.70;6.13;;;1.60;99.90;;;;;;5022454;28;20047;-91
2023/01/17 09:40:55;;;;;;;15.82;8.63;;;1.70;99.90;;;;;;5013834;28;20041;-90
2023/01/17 09:43:46;;;;;;;13.27;7.90;;;1.80;99.90;;;;;;5008871;28;20204;-86
2023/01/17 09:46:32;;;;;;;14.70;7.63;;;1.80;99.90;;;;;;5019950;28;20813;-89
2023/01/17 09:49:18;;;;;;;14.55;8.57;;;1.90;99.90;;;;;;5007967;28;20046;-86
2023/01/17 09:51:45;;;;;;;19.27;9.88;;;2.00;99.90;;;;;;5021748;28;20040;-88
2023/01/17 09:54:38;;;;;;;20.88;12.00;;;2.00;99.90;;;;;;5021758;28;20033;-85
2023/01/17 09:57:25;;;;;;;19.00;11.52;;;2.10;99.90;;;;;;5024418;28;20904;-89
2023/01/17 10:00:30;;;;;;;23.48;13.27;;;2.40;99.90;;;;;;5015584;28;20076;-88
2023/01/17 10:03:15;;;;;;;16.77;10.20;;;2.30;99.90;;;;;;5021963;28;20170;-90
2023/01/17 10:06:00;;;;;;;15.30;9.73;;;2.50;99.90;;;;;;5005583;28;20033;-85
2023/01/17 10:09:02;;;;;;;13.00;8.30;;;2.60;99.90;;;;;;5023134;28;20028;-90
2023/01/17 10:11:59;;;;;;;12.02;6.43;;;2.70;99.90;;;;;;5015115;28;20068;-87
2023/01/17 10:14:44;;;;;;;10.63;5.43;;;2.60;99.90;;;;;;4996575;28;20583;-86
2023/01/17 10:17:19;;;;;;;9.18;4.90;;;2.70;99.90;;;;;;5015148;28;20040;-83
2023/01/17 10:20:14;;;;;;;6.55;3.80;;;2.70;99.90;;;;;;5013997;28;20044;-91
2023/01/17 10:22:58;;;;;;;6.22;3.67;;;2.70;99.90;;;;;;5021661;28;20425;-88
2023/01/17 10:25:59;;;;;;;;;;;;;;;;;;;;;
2023/01/17 10:28:48;;;;;;;4.70;3.00;;;2.70;99.90;;;;;;5027896;28;20029;-80
2023/01/17 10:31:34;;;;;;;6.82;3.72;;;2.80;99.90;;;;;;5028547;28;20029;-82
2023/01/17 10:34:18;;;;;;;8.27;4.20;;;2.90;99.90;;;;;;5024915;28;20037;-82
2023/01/17 10:36:51;;;;;;;8.43;4.05;;;2.80;99.90;;;;;;5026940;28;20033;-82
2023/01/17 10:39:23;;;;;;;7.00;4.10;;;3.00;99.90;;;;;;5026964;28;20740;-82
2023/01/17 10:42:02;;;;;;;6.93;3.08;;;3.00;99.90;;;;;;5023503;28;20045;-82
2023/01/17 10:44:50;;;;;;;5.03;3.08;;;3.00;99.90;;;;;;5047067;28;20064;-82
2023/01/17 10:47:21;;;;;;;4.55;1.80;;;3.20;99.90;;;;;;5026479;28;20066;-82
2023/01/17 10:49:57;;;;;;;6.45;3.00;;;3.10;99.90;;;;;;5025845;28;20057;-80
2023/01/17 10:53:22;;;;;;;7.57;3.30;;;3.00;99.90;;;;;;4997375;28;20034;-81
2023/01/17 10:55:52;;;;;;;7.72;3.75;;;2.90;99.90;;;;;;4971232;28;20746;-81
2023/01/17 10:58:18;;;;;;;9.65;3.55;;;2.90;99.90;;;;;;4992577;28;20486;-81
2023/01/17 11:01:04;;;;;;;9.05;3.75;;;3.00;99.90;;;;;;4987465;28;20037;-81
2023/01/17 11:03:30;;;;;;;5.47;2.42;;;2.90;99.90;;;;;;4987696;28;20104;-81
2023/01/17 11:06:24;;;;;;;3.45;1.55;;;3.10;99.90;;;;;;4980153;28;20048;-82
2023/01/17 11:08:57;;;;;;;7.50;3.80;;;3.30;99.90;;;;;;5005386;28;20116;-82
2023/01/17 11:11:34;;;;;;;5.82;3.30;;;3.20;99.90;;;;;;5014042;28;20052;-82
2023/01/17 11:14:06;;;;;;;6.25;2.50;;;3.20;99.90;;;;;;5002420;28;20569;-82
2023/01/17 11:16:36;;;;;;;6.43;3.15;;;3.20;99.90;;;;;;4997281;28;20541;-82
2023/01/17 11:19:30;;;;;;;8.93;2.08;;;3.20;99.90;;;;;;4996800;28;20048;-83
2023/01/17 11:22:04;;;;;;;5.72;2.67;;;3.30;99.90;;;;;;4988633;28;20041;-82
2023/01/17 11:25:00;;;;;;;3.63;1.80;;;3.40;99.90;;;;;;5005954;28;21110;-81
2023/01/17 11:27:30;;;;;;;4.63;1.40;;;3.60;99.90;;;;;;4966611;28;20038;-83
2023/01/17 11:30:16;;;;;;;4.97;2.00;;;3.60;99.90;;;;;;5013159;28;20041;-82
2023/01/17 11:32:59;;;;;;;5.35;2.50;;;3.60;99.90;;;;;;4966283;28;20231;-82
2023/01/17 11:35:29;;;;;;;6.40;2.45;;;3.50;99.90;;;;;;5018123;28;20111;-87
2023/01/17 11:38:04;;;;;;;6.47;2.38;;;3.60;99.90;;;;;;5017543;28;20037;-84
2023/01/17 11:40:42;;;;;;;4.63;2.38;;;3.40;99.90;;;;;;5043329;28;20895;-87
2023/01/17 11:43:10;;;;;;;4.97;1.48;;;3.60;99.90;;;;;;5033346;28;20403;-82
2023/01/17 11:45:38;;;;;;;5.13;2.35;;;3.60;99.90;;;;;;5031207;28;20024;-83
2023/01/17 11:48:14;;;;;;;10.93;2.03;;;3.40;99.90;;;;;;5017817;28;20036;-82
2023/01/17 11:50:55;;;;;;;8.00;2.28;;;3.30;99.90;;;;;;4993113;28;20091;-83
2023/01/17 11:53:36;;;;;;;4.15;1.80;;;3.20;99.90;;;;;;4992318;28;20589;-83
2023/01/17 11:56:13;;;;;;;4.95;1.60;;;3.40;99.90;;;;;;4972645;28;20033;-83
2023/01/17 11:58:51;;;;;;;5.72;1.63;;;3.30;99.90;;;;;;4985937;28;20034;-82
2023/01/17 12:01:57;;;;;;;6.70;2.25;;;3.50;99.90;;;;;;4992728;28;20037;-83
2023/01/17 12:04:47;;;;;;;4.57;1.20;;;3.50;99.90;;;;;;4945653;28;20048;-83
2023/01/17 12:07:56;;;;;;;3.33;1.17;;;3.40;99.90;;;;;;4992610;28;20048;-85
2023/01/17 12:10:52;;;;;;;6.88;1.40;;;3.50;99.90;;;;;;4978222;28;20068;-83
2023/01/17 12:16:52;;;;;;;4.05;0.77;;;3.60;99.90;;;;;;5024198;28;20044;-83
2023/01/17 12:20:09;;;;;;;3.63;0.60;;;3.80;99.90;;;;;;4989757;28;20103;-84
2023/01/17 12:22:59;;;;;;;;;;;;;;;;;;;;;
2023/01/17 12:26:11;;;;;;;4.90;1.20;;;3.80;99.90;;;;;;4976063;28;20486;-84
2023/01/17 12:29:08;;;;;;;4.82;1.20;;;3.80;99.90;;;;;;4979129;28;20046;-83
2023/01/17 12:32:23;;;;;;;3.63;0.70;;;3.80;99.90;;;;;;4998400;28;20040;-84
2023/01/17 12:35:03;;;;;;;2.97;0.70;;;3.80;99.90;;;;;;4979962;28;20037;-84
2023/01/17 12:38:08;;;;;;;3.92;0.80;;;3.80;99.90;;;;;;4997364;28;20033;-84
2023/01/17 12:41:30;;;;;;;;;;;;;;;;;;;;;
2023/01/17 12:44:56;;;;;;;3.05;0.60;;;4.10;99.90;;;;;;5003675;28;20517;-86
2023/01/17 12:47:35;;;;;;;;;;;;;;;;;;;;;
2023/01/17 12:50:56;;;;;;;3.97;0.40;;;4.10;99.90;;;;;;5041718;28;20147;-83
2023/01/17 12:54:17;;;;;;;1.77;0.30;;;4.00;99.90;;;;;;5007886;28;20602;-85
2023/01/17 12:57:31;;;;;;;2.10;0.40;;;4.10;99.90;;;;;;4932584;28;20042;-83
2023/01/17 13:00:20;;;;;;;4.13;0.28;;;4.00;99.90;;;;;;4914768;28;20392;-84
2023/01/17 13:03:03;;;;;;;1.58;1.33;;;4.00;99.90;;;;;;4920341;28;20414;-85
2023/01/17 13:05:53;;;;;;;4.65;0.30;;;3.90;99.90;;;;;;4951819;28;20100;-83
2023/01/17 13:08:52;;;;;;;;;;;;;;;;;;;;;
2023/01/17 13:11:28;;;;;;;2.05;0.30;;;3.90;99.90;;;;;;4951646;28;20345;-84
2023/01/17 13:14:22;;;;;;;1.42;0.20;;;4.00;99.90;;;;;;4931432;28;20558;-84
2023/01/17 13:16:59;;;;;;;1.60;0.20;;;4.00;99.90;;;;;;4934937;28;20079;-83
2023/01/17 13:19:49;;;;;;;1.10;0.20;;;4.10;99.90;;;;;;4951211;28;20057;-83
2023/01/17 13:22:25;;;;;;;2.53;0.20;;;4.10;99.90;;;;;;4950174;28;20048;-84
2023/01/17 13:25:29;;;;;;;1.05;0.20;;;4.10;99.90;;;;;;4932259;28;20026;-83
2023/01/17 13:28:04;;;;;;;1.95;0.20;;;4.00;99.90;;;;;;4940424;28;20056;-82
2023/01/17 13:30:51;;;;;;;1.38;0.20;;;4.00;99.90;;;;;;4976415;28;20068;-82
2023/01/17 13:33:35;;;;;;;0.65;0.15;;;3.90;99.90;;;;;;5005986;28;20029;-84
2023/01/17 13:36:30;;;;;;;1.63;0.30;;;4.00;99.90;;;;;;4989725;28;20079;-81
2023/01/17 13:39:15;;;;;;;3.30;0.25;;;3.90;99.90;;;;;;5006849;28;20056;-82
2023/01/17 13:41:57;;;;;;;4.15;0.20;;;3.90;99.90;;;;;;4990443;28;20037;-80
2023/01/17 13:44:26;;;;;;;2.65;0.22;;;3.90;99.90;;;;;;4982074;28;20069;-83
2023/01/17 13:46:56;;;;;;;0.67;0.20;;;3.80;99.90;;;;;;4960875;28;20212;-83
2023/01/17 13:49:25;;;;;;;;;;;3.90;99.90;;;;;;4972674;28;20847;-83
2023/01/17 13:52:06;;;;;;;2.05;0.20;;;3.90;99.90;;;;;;5005868;28;19925;-82
2023/01/17 13:54:33;;;;;;;1.70;0.30;;;3.90;99.90;;;;;;5003714;28;20584;-82
2023/01/17 13:57:28;;;;;;;3.92;0.30;;;3.80;99.90;;;;;;5004970;28;20416;-82
2023/01/17 13:59:56;;;;;;;1.02;0.22;;;3.80;99.90;;;;;;4980743;28;20116;-83
2023/01/17 14:02:31;;;;;;;1.52;0.30;;;3.80;99.90;;;;;;5003555;28;20051;-82
2023/01/17 14:05:16;;;;;;;1.23;0.32;;;3.80;99.90;;;;;;4970346;28;20045;-82
2023/01/17 14:07:46;;;;;;;1.27;0.30;;;3.80;99.90;;;;;;4974645;28;20140;-82
2023/01/17 14:10:35;;;;;;;1.50;0.30;;;3.80;99.90;;;;;;4986219;28;20034;-82
2023/01/17 14:13:04;;;;;;;2.47;0.20;;;3.70;99.90;;;;;;4968940;28;20052;-82
2023/01/17 14:15:33;;;;;;;2.92;0.30;;;3.70;99.90;;;;;;4968777;28;20394;-82
2023/01/17 14:18:05;;;;;;;3.47;0.30;;;3.60;99.90;;;;;;4986865;28;20553;-82
2023/01/17 14:20:43;;;;;;;1.15;0.28;;;3.70;99.90;;;;;;4968723;28;20036;-83
2023/01/17 14:23:29;;;;;;;1.40;0.20;;;3.70;99.90;;;;;;4977483;28;20483;-83
2023/01/17 14:26:02;;;;;;;2.03;0.30;;;3.60;99.90;;;;;;4994399;28;20061;-82
2023/01/17 14:28:30;;;;;;;2.60;0.30;;;3.60;99.90;;;;;;4977671;28;20068;-83
2023/01/17 14:30:58;;;;;;;1.83;0.22;;;3.60;99.90;;;;;;4978287;28;20041;-83
2023/01/17 14:33:38;;;;;;;1.40;0.22;;;3.60;99.90;;;;;;4963677;28;20038;-82
2023/01/17 14:36:07;;;;;;;1.77;0.28;;;3.50;99.90;;;;;;4994633;28;20029;-83
2023/01/17 14:38:41;;;;;;;1.42;0.30;;;3.50;99.90;;;;;;4985066;28;20045;-83
2023/01/17 14:41:12;;;;;;;2.03;0.20;;;3.50;99.90;;;;;;4992093;28;20487;-82
2023/01/17 14:43:41;;;;;;;2.95;0.20;;;3.40;99.90;;;;;;4952392;28;20055;-82
2023/01/17 14:46:25;;;;;;;0.80;0.20;;;3.40;99.90;;;;;;4973558;28;20063;-82
2023/01/17 14:48:59;;;;;;;2.85;0.20;;;3.20;99.90;;;;;;4995131;28;20183;-82
2023/01/17 14:51:25;;;;;;;1.83;0.20;;;3.10;99.90;;;;;;5000602;28;20037;-84
2023/01/17 14:53:58;;;;;;;1.30;0.10;;;3.10;99.90;;;;;;4976230;28;20518;-83
2023/01/17 14:56:26;;;;;;;1.73;0.20;;;3.00;99.90;;;;;;4993107;28;20026;-83
2023/01/17 14:59:04;;;;;;;2.05;0.20;;;2.90;99.90;;;;;;4977937;28;20116;-83
2023/01/17 15:01:31;;;;;;;1.17;0.20;;;2.90;99.90;;;;;;4983487;28;20136;-83
2023/01/17 15:03:57;;;;;;;0.57;0.20;;;2.90;99.90;;;;;;4997903;28;20072;-82